createdAt,value
2023-05-25T00:03:12.782Z,28.95
2023-05-25T00:07:16.193Z,28.30
2023-05-25T00:11:19.671Z,29.58
2023-05-25T00:15:21.891Z,30.60
2023-05-25T00:19:25.085Z,30.55
2023-05-25T00:23:27.243Z,33.25
2023-05-25T00:27:30.328Z,33.72
2023-05-25T00:31:33.571Z,33.65
2023-05-25T00:35:35.919Z,33.90
2023-05-25T00:39:38.081Z,32.78
2023-05-25T00:43:40.476Z,33.05
2023-05-25T00:47:44.345Z,34.35
2023-05-25T00:51:48.402Z,32.72
2023-05-25T00:55:57.982Z,36.22
2023-05-25T01:00:02.286Z,35.08
2023-05-25T01:04:07.469Z,38.78
2023-05-25T01:08:12.109Z,38.05
2023-05-25T01:12:19.186Z,36.17
2023-05-25T01:16:21.818Z,38.05
2023-05-25T01:20:24.199Z,37.50
2023-05-25T01:24:26.653Z,34.35
2023-05-25T01:28:32.762Z,40.88
2023-05-25T01:32:37.351Z,41.53
2023-05-25T01:36:39.698Z,41.47
2023-05-25T01:40:41.860Z,44.72
2023-05-25T01:44:44.984Z,43.15
2023-05-25T01:48:55.942Z,43.03
2023-05-25T01:53:12.868Z,43.05
2023-05-25T01:57:17.905Z,43.25
2023-05-25T02:01:22.718Z,47.85
2023-05-25T02:05:24.990Z,45.17
2023-05-25T02:09:27.413Z,49.25
2023-05-25T02:13:29.607Z,49.33
2023-05-25T02:17:32.113Z,50.85
2023-05-25T02:21:37.679Z,49.28
2023-05-25T02:25:39.823Z,48.97
2023-05-25T02:29:41.946Z,46.55
2023-05-25T02:33:44.168Z,46.63
2023-05-25T02:37:47.292Z,48.05
2023-05-25T02:41:50.969Z,43.63
2023-05-25T02:45:54.803Z,48.38
2023-05-25T02:49:56.904Z,47.92
2023-05-25T02:53:59.857Z,47.47
2023-05-25T02:58:02.244Z,46.60
2023-05-25T03:02:21.149Z,48.17
2023-05-25T03:06:23.495Z,46.70
2023-05-25T03:10:30.144Z,47.95
2023-05-25T03:14:32.647Z,44.67
2023-05-25T03:18:39.554Z,46.78
2023-05-25T03:22:43.355Z,47.28
2023-05-25T03:26:45.535Z,46.25
2023-05-25T03:30:48.019Z,44.10
2023-05-25T03:34:51.514Z,42.55
2023-05-25T03:38:54.821Z,42.08
2023-05-25T03:42:57.436Z,42.22
2023-05-25T03:46:59.713Z,42.83
2023-05-25T03:51:02.085Z,43.83
2023-05-25T03:55:05.292Z,41.45
2023-05-25T03:59:07.579Z,41.83
2023-05-25T04:03:11.047Z,40.97
2023-05-25T04:07:13.665Z,40.78
2023-05-25T04:11:15.952Z,44.80
2023-05-25T04:15:18.145Z,45.70
2023-05-25T04:19:29.398Z,45.08
2023-05-25T04:23:34.121Z,43.15
2023-05-25T04:27:36.741Z,46.97
2023-05-25T04:31:41.150Z,43.78
2023-05-25T04:39:54.121Z,41.75
2023-05-25T04:44:05.758Z,40.00
2023-05-25T04:48:13.937Z,40.50
2023-05-25T04:52:16.249Z,44.67
2023-05-25T04:56:22.298Z,41.95
2023-05-25T05:00:24.981Z,44.30
2023-05-25T05:04:29.244Z,42.13
2023-05-25T05:08:31.991Z,42.38
2023-05-25T05:12:34.298Z,43.47
2023-05-25T05:16:37.576Z,43.50
2023-05-25T05:20:40.022Z,42.30
2023-05-25T05:24:42.443Z,40.50
2023-05-25T05:28:47.028Z,43.05
2023-05-25T05:32:49.278Z,43.88
2023-05-25T05:36:58.067Z,41.58
2023-05-25T05:41:03.113Z,39.60
2023-05-25T05:45:06.004Z,42.47
2023-05-25T05:49:08.095Z,40.45
2023-05-25T05:53:11.059Z,42.40
2023-05-25T05:57:13.339Z,41.42
2023-05-25T06:01:18.392Z,38.92
2023-05-25T06:05:21.319Z,39.45
2023-05-25T06:09:23.816Z,40.45
2023-05-25T06:13:26.211Z,41.75
2023-05-25T06:17:29.783Z,42.45
2023-05-25T06:21:31.960Z,46.05
2023-05-25T06:25:34.036Z,42.45
2023-05-25T06:29:36.083Z,40.78
2023-05-25T06:33:38.193Z,38.35
2023-05-25T06:37:41.284Z,36.03
2023-05-25T06:41:43.636Z,37.70
2023-05-25T06:45:46.219Z,37.65
2023-05-25T06:49:49.966Z,37.50
2023-05-25T06:53:52.395Z,38.40
2023-05-25T06:57:54.132Z,38.28
2023-05-25T07:01:56.416Z,34.20
2023-05-25T07:05:58.644Z,34.85
2023-05-25T07:10:03.630Z,37.75
2023-05-25T07:14:05.975Z,35.90
2023-05-25T07:18:12.361Z,36.08
2023-05-25T07:22:17.005Z,37.28
2023-05-25T07:26:22.926Z,35.83
2023-05-25T07:30:25.049Z,37.80
2023-05-25T07:34:28.002Z,35.80
2023-05-25T07:38:30.254Z,34.88
2023-05-25T07:42:34.440Z,34.42
2023-05-25T07:46:36.635Z,36.38
2023-05-25T07:50:38.740Z,36.35
2023-05-25T07:54:41.141Z,35.42
2023-05-25T07:58:43.238Z,36.67
2023-05-25T08:02:45.938Z,34.65
2023-05-25T08:06:48.136Z,36.85
2023-05-25T08:10:50.467Z,31.27
2023-05-25T08:14:54.084Z,35.25
2023-05-25T08:18:56.233Z,33.92
2023-05-25T08:22:59.714Z,32.50
2023-05-25T08:27:02.722Z,31.58
2023-05-25T08:31:04.926Z,31.00
2023-05-25T08:35:08.052Z,30.23
2023-05-25T08:39:10.286Z,30.80
2023-05-25T08:43:12.374Z,30.98
2023-05-25T08:47:16.313Z,30.05
2023-05-25T08:51:18.950Z,30.83
2023-05-25T08:55:23.977Z,29.67
2023-05-25T08:59:31.660Z,30.20
2023-05-25T09:03:35.070Z,27.80
2023-05-25T09:07:37.563Z,29.13
2023-05-25T09:11:44.948Z,28.92
2023-05-25T09:15:48.889Z,27.23
2023-05-25T09:19:51.364Z,25.58
2023-05-25T09:23:53.610Z,27.45
2023-05-25T09:27:59.395Z,28.15
2023-05-25T09:32:07.087Z,25.83
2023-05-25T09:36:09.562Z,24.65
2023-05-25T09:40:11.964Z,26.42
2023-05-25T09:44:14.011Z,25.92
2023-05-25T09:48:16.239Z,26.08
2023-05-25T09:52:18.497Z,27.00
2023-05-25T09:56:21.842Z,27.70
2023-05-25T10:00:24.927Z,29.13
2023-05-25T10:04:27.187Z,27.50
2023-05-25T10:08:29.896Z,27.92
2023-05-25T10:12:32.665Z,26.42
2023-05-25T10:16:35.188Z,27.67
2023-05-25T10:20:38.339Z,26.25
2023-05-25T10:24:52.114Z,25.58
2023-05-25T10:29:01.391Z,26.15
2023-05-25T10:33:03.736Z,26.00
2023-05-25T10:37:07.535Z,24.85
2023-05-25T10:41:11.277Z,27.77
2023-05-25T10:45:13.973Z,24.77
2023-05-25T10:49:26.530Z,25.70
2023-05-25T10:53:28.711Z,26.13
2023-05-25T10:57:31.205Z,26.75
2023-05-25T11:01:33.703Z,27.08
2023-05-25T11:05:38.363Z,26.10
2023-05-25T11:09:44.934Z,25.73
2023-05-25T11:13:47.733Z,23.90
2023-05-25T11:18:14.627Z,19.00
2023-05-25T11:22:35.221Z,18.40
2023-05-25T11:26:37.537Z,16.70
2023-05-25T11:30:42.087Z,16.08
2023-05-25T11:34:46.837Z,15.65
2023-05-25T11:39:02.399Z,17.20
2023-05-25T11:43:09.659Z,13.50
2023-05-25T11:47:18.929Z,15.10
2023-05-25T11:51:23.871Z,15.18
2023-05-25T11:55:26.115Z,14.80
2023-05-25T11:59:32.207Z,15.63
2023-05-25T12:03:34.869Z,14.48
2023-05-25T12:07:43.896Z,14.07
2023-05-25T12:11:46.068Z,14.48
2023-05-25T12:15:48.715Z,12.60
2023-05-25T12:19:51.215Z,13.77
2023-05-25T12:23:54.684Z,13.23
2023-05-25T12:28:13.021Z,11.35
2023-05-25T12:32:15.494Z,12.33
2023-05-25T12:36:18.052Z,12.18
2023-05-25T12:40:21.117Z,11.25
2023-05-25T12:44:27.253Z,11.55
2023-05-25T12:48:29.492Z,12.15
2023-05-25T12:52:39.461Z,11.98
2023-05-25T12:56:55.616Z,11.05
2023-05-25T13:00:57.660Z,11.50
2023-05-25T13:04:59.778Z,12.48
2023-05-25T13:09:02.584Z,12.48
2023-05-25T13:13:04.907Z,12.35
2023-05-25T13:17:07.144Z,11.82
2023-05-25T13:21:10.079Z,12.50
2023-05-25T13:25:13.070Z,13.27
2023-05-25T13:29:15.364Z,12.88
2023-05-25T13:33:17.460Z,12.45
2023-05-25T13:37:19.908Z,12.48
2023-05-25T13:41:22.157Z,12.20
2023-05-25T13:45:24.324Z,11.63
2023-05-25T13:49:26.524Z,12.38
2023-05-25T13:53:28.814Z,12.45
2023-05-25T13:57:30.864Z,11.15
2023-05-25T14:01:33.272Z,9.93
2023-05-25T14:05:35.389Z,11.68
2023-05-25T14:09:37.468Z,10.80
2023-05-25T14:13:39.552Z,10.30
2023-05-25T14:17:41.683Z,9.85
2023-05-25T14:21:43.887Z,10.68
2023-05-25T14:25:47.341Z,10.77
2023-05-25T14:29:52.269Z,11.27
2023-05-25T14:33:54.371Z,9.63
2023-05-25T14:37:56.514Z,10.88
2023-05-25T14:41:58.676Z,10.23
2023-05-25T14:46:00.782Z,10.32
2023-05-25T14:50:03.047Z,9.93
2023-05-25T14:54:07.230Z,10.77
2023-05-25T14:58:10.126Z,11.68
2023-05-25T15:02:12.471Z,11.32
2023-05-25T15:06:14.633Z,11.18
2023-05-25T15:10:16.797Z,11.88
2023-05-25T15:14:18.876Z,10.60
2023-05-25T15:18:21.128Z,10.93
2023-05-25T15:22:23.187Z,10.25
2023-05-25T15:26:26.392Z,9.82
2023-05-25T15:30:28.447Z,9.60
2023-05-25T15:34:30.742Z,8.30
2023-05-25T15:38:32.902Z,9.75
2023-05-25T15:42:37.212Z,9.30
2023-05-25T15:46:41.003Z,7.97
2023-05-25T15:50:43.232Z,8.65
2023-05-25T15:54:45.347Z,9.00
2023-05-25T15:58:49.314Z,8.95
2023-05-25T16:02:51.492Z,9.25
2023-05-25T16:06:53.634Z,8.98
2023-05-25T16:10:55.866Z,9.27
2023-05-25T16:14:58.152Z,8.77
2023-05-25T16:19:00.307Z,9.60
2023-05-25T16:23:02.780Z,8.43
2023-05-25T16:27:05.038Z,9.75
2023-05-25T16:31:07.628Z,9.00
2023-05-25T16:35:10.413Z,9.52
2023-05-25T16:39:12.467Z,9.00
2023-05-25T16:43:14.619Z,9.15
2023-05-25T16:47:17.091Z,10.25
2023-05-25T16:51:19.154Z,9.48
2023-05-25T16:55:21.517Z,9.32
2023-05-25T16:59:23.944Z,9.32
2023-05-25T17:03:26.392Z,9.88
2023-05-25T17:07:30.116Z,9.80
2023-05-25T17:11:32.504Z,9.35
2023-05-25T17:15:34.846Z,10.02
2023-05-25T17:19:37.523Z,9.65
2023-05-25T17:23:39.835Z,8.13
2023-05-25T17:27:42.164Z,9.55
2023-05-25T17:31:47.740Z,10.10
2023-05-25T17:35:50.891Z,11.27
2023-05-25T17:39:53.000Z,17.38
2023-05-25T17:43:55.248Z,19.45
2023-05-25T17:47:58.377Z,20.77
2023-05-25T17:52:00.511Z,12.55
2023-05-25T17:56:02.998Z,25.63
2023-05-25T18:00:05.950Z,15.07
2023-05-25T18:04:14.925Z,13.07
2023-05-25T18:08:17.299Z,15.02
2023-05-25T18:12:19.615Z,14.75
2023-05-25T18:16:22.673Z,11.70
2023-05-25T18:20:24.728Z,30.90
2023-05-25T18:24:27.997Z,23.70
2023-05-25T18:28:31.403Z,13.55
2023-05-25T18:32:34.027Z,13.93
2023-05-25T18:36:36.555Z,21.10
2023-05-25T18:40:38.328Z,28.02
2023-05-25T18:44:41.754Z,54.25
2023-05-25T18:48:44.197Z,65.07
2023-05-25T18:52:50.574Z,51.17
2023-05-25T18:56:53.580Z,45.25
2023-05-25T19:00:55.885Z,24.52
2023-05-25T19:04:57.966Z,37.75
2023-05-25T19:09:00.304Z,34.67
2023-05-25T19:13:02.726Z,33.55
2023-05-25T19:17:05.752Z,31.52
2023-05-25T19:21:08.814Z,15.15
2023-05-25T19:25:11.249Z,13.60
2023-05-25T19:29:14.203Z,14.48
2023-05-25T19:33:16.361Z,12.38
2023-05-25T19:37:18.749Z,11.98
2023-05-25T19:41:21.391Z,12.88
2023-05-25T19:45:23.814Z,12.13
2023-05-25T19:49:26.312Z,12.43
2023-05-25T19:53:31.279Z,12.40
2023-05-25T19:57:33.349Z,12.77
2023-05-25T20:01:36.415Z,12.57
2023-05-25T20:05:38.658Z,12.18
2023-05-25T20:09:42.857Z,14.05
2023-05-25T20:13:46.678Z,13.57
2023-05-25T20:17:49.064Z,20.27
2023-05-25T20:21:51.796Z,23.08
2023-05-25T20:25:54.241Z,25.67
2023-05-25T20:29:57.500Z,23.85
2023-05-25T20:33:59.757Z,22.23
2023-05-25T20:38:02.065Z,21.33
2023-05-25T20:42:04.564Z,21.02
2023-05-25T20:46:08.633Z,20.33
2023-05-25T20:50:10.949Z,20.58
2023-05-25T20:54:13.040Z,19.70
2023-05-25T20:58:15.102Z,22.08
2023-05-25T21:02:17.920Z,19.15
2023-05-25T21:06:20.890Z,19.48
2023-05-25T21:10:23.124Z,18.73
2023-05-25T21:14:25.261Z,18.50
2023-05-25T21:18:27.347Z,19.20
2023-05-25T21:22:29.379Z,19.85
2023-05-25T21:26:31.524Z,17.58
2023-05-25T21:30:33.756Z,19.30
2023-05-25T21:34:35.938Z,19.52
2023-05-25T21:38:37.919Z,17.55
2023-05-25T21:42:41.057Z,19.90
2023-05-25T21:46:43.337Z,20.52
2023-05-25T21:50:45.377Z,22.02
2023-05-25T21:54:47.502Z,20.08
2023-05-25T21:58:49.696Z,21.95
2023-05-25T22:02:51.829Z,20.17
2023-05-25T22:06:56.629Z,20.15
2023-05-25T22:10:58.752Z,19.95
2023-05-25T22:15:00.746Z,19.52
2023-05-25T22:19:02.908Z,18.77
2023-05-25T22:23:05.135Z,19.67
2023-05-25T22:27:07.589Z,18.08
2023-05-25T22:31:09.737Z,20.35
2023-05-25T22:35:11.804Z,20.15
2023-05-25T22:39:13.931Z,18.73
2023-05-25T22:43:16.662Z,18.60
2023-05-25T22:47:18.749Z,17.70
2023-05-25T22:51:20.802Z,16.88
2023-05-25T22:55:23.012Z,17.33
2023-05-25T22:59:25.042Z,15.50
2023-05-25T23:03:27.108Z,16.80
2023-05-25T23:07:28.933Z,16.10
2023-05-25T23:11:30.942Z,17.10
2023-05-25T23:15:33.264Z,18.08
2023-05-25T23:19:35.831Z,16.95
2023-05-25T23:23:37.972Z,16.95
2023-05-25T23:27:40.082Z,17.42
2023-05-25T23:31:42.209Z,16.63
2023-05-25T23:35:44.709Z,16.65
2023-05-25T23:39:46.847Z,14.75
2023-05-25T23:43:48.944Z,12.90
2023-05-25T23:47:51.384Z,10.50
2023-05-25T23:51:53.443Z,10.07
2023-05-25T23:55:55.542Z,8.25
2023-05-25T23:59:57.974Z,7.45
